createdAt,value
2023-04-30T00:00:53.180Z,4.18
2023-04-30T00:03:19.782Z,4.55
2023-04-30T00:05:50.842Z,4.15
2023-04-30T00:08:17.431Z,4.43
2023-04-30T00:10:43.768Z,4.57
2023-04-30T00:13:10.313Z,4.28
2023-04-30T00:15:36.886Z,4.63
2023-04-30T00:18:03.705Z,4.57
2023-04-30T00:20:30.495Z,4.60
2023-04-30T00:22:56.830Z,5.63
2023-04-30T00:25:23.490Z,5.28
2023-04-30T00:27:50.154Z,4.55
2023-04-30T00:30:16.740Z,4.45
2023-04-30T00:32:43.104Z,4.82
2023-04-30T00:35:09.930Z,4.20
2023-04-30T00:37:36.412Z,4.80
2023-04-30T00:40:04.424Z,4.78
2023-04-30T00:42:30.895Z,4.82
2023-04-30T00:44:57.401Z,4.43
2023-04-30T00:47:24.077Z,4.88
2023-04-30T00:49:50.620Z,5.43
2023-04-30T00:52:18.199Z,5.28
2023-04-30T00:54:45.324Z,4.50
2023-04-30T00:57:12.975Z,5.50
2023-04-30T00:59:39.386Z,5.85
2023-04-30T01:02:05.870Z,5.55
2023-04-30T01:04:32.583Z,5.78
2023-04-30T01:07:00.267Z,5.00
2023-04-30T01:09:26.724Z,5.97
2023-04-30T01:12:11.703Z,5.10
2023-04-30T01:14:46.846Z,5.35
2023-04-30T01:17:32.547Z,4.75
2023-04-30T01:19:59.830Z,4.93
2023-04-30T01:22:26.252Z,5.95
2023-04-30T01:24:55.746Z,4.78
2023-04-30T01:27:32.744Z,5.10
2023-04-30T01:30:02.216Z,5.00
2023-04-30T01:32:28.712Z,5.32
2023-04-30T01:34:55.060Z,5.28
2023-04-30T01:37:50.612Z,5.63
2023-04-30T01:40:34.096Z,5.32
2023-04-30T01:43:15.359Z,5.10
2023-04-30T01:45:57.080Z,5.93
2023-04-30T01:48:40.064Z,6.32
2023-04-30T01:51:19.398Z,5.65
2023-04-30T01:53:46.363Z,6.38
2023-04-30T01:56:21.764Z,6.35
2023-04-30T01:58:49.081Z,6.72
2023-04-30T02:01:31.973Z,5.93
2023-04-30T02:03:59.589Z,6.93
2023-04-30T02:06:26.808Z,7.45
2023-04-30T02:08:53.881Z,6.40
2023-04-30T02:11:20.254Z,6.53
2023-04-30T02:13:46.674Z,6.25
2023-04-30T02:16:13.225Z,7.53
2023-04-30T02:18:41.555Z,6.60
2023-04-30T02:21:12.312Z,6.25
2023-04-30T02:26:05.197Z,7.13
2023-04-30T02:28:31.606Z,6.60
2023-04-30T02:30:58.433Z,6.35
2023-04-30T02:33:25.179Z,6.72
2023-04-30T02:35:51.672Z,7.47
2023-04-30T02:38:18.158Z,6.95
2023-04-30T02:40:44.666Z,7.18
2023-04-30T02:43:11.334Z,7.13
2023-04-30T02:45:38.298Z,8.48
2023-04-30T02:48:05.292Z,7.68
2023-04-30T02:50:31.819Z,7.72
2023-04-30T02:52:58.334Z,5.82
2023-04-30T02:55:25.081Z,6.85
2023-04-30T02:57:51.551Z,6.15
2023-04-30T03:00:18.056Z,7.00
2023-04-30T03:02:44.871Z,6.88
2023-04-30T03:05:11.608Z,7.35
2023-04-30T03:07:38.193Z,6.68
2023-04-30T03:10:05.074Z,7.88
2023-04-30T03:12:31.448Z,7.65
2023-04-30T03:14:58.100Z,7.10
2023-04-30T03:17:24.526Z,8.32
2023-04-30T03:19:51.324Z,8.60
2023-04-30T03:22:17.699Z,7.70
2023-04-30T03:24:44.150Z,8.73
2023-04-30T03:27:10.572Z,8.55
2023-04-30T03:29:37.066Z,7.93
2023-04-30T03:32:03.630Z,7.97
2023-04-30T03:34:30.146Z,9.23
2023-04-30T03:36:56.608Z,8.45
2023-04-30T03:39:23.008Z,9.55
2023-04-30T03:41:49.453Z,8.65
2023-04-30T03:44:16.050Z,8.73
2023-04-30T03:46:42.898Z,9.15
2023-04-30T03:49:09.560Z,9.50
2023-04-30T03:51:36.991Z,10.10
2023-04-30T03:54:03.537Z,9.43
2023-04-30T03:56:29.956Z,9.32
2023-04-30T03:58:56.350Z,9.55
2023-04-30T04:01:22.997Z,9.80
2023-04-30T04:03:49.528Z,8.98
2023-04-30T04:06:16.019Z,10.10
2023-04-30T04:08:44.310Z,10.32
2023-04-30T04:11:11.883Z,9.63
2023-04-30T04:13:38.918Z,10.25
2023-04-30T04:16:05.639Z,10.13
2023-04-30T04:18:32.271Z,9.15
2023-04-30T04:20:58.823Z,9.95
2023-04-30T04:23:25.156Z,10.30
2023-04-30T04:25:51.680Z,10.50
2023-04-30T04:28:18.136Z,9.85
2023-04-30T04:30:44.496Z,9.40
2023-04-30T04:33:10.883Z,10.23
2023-04-30T04:35:37.634Z,11.10
2023-04-30T04:38:04.468Z,10.00
2023-04-30T04:40:31.808Z,10.70
2023-04-30T04:42:58.585Z,10.13
2023-04-30T04:45:24.996Z,10.50
2023-04-30T04:47:51.577Z,9.77
2023-04-30T04:50:17.950Z,9.27
2023-04-30T04:52:45.023Z,10.20
2023-04-30T04:55:11.680Z,10.80
2023-04-30T04:57:38.149Z,10.48
2023-04-30T05:00:05.538Z,9.73
2023-04-30T05:02:32.090Z,9.32
2023-04-30T05:04:58.878Z,10.05
2023-04-30T05:07:25.391Z,9.15
2023-04-30T05:09:51.837Z,9.40
2023-04-30T05:12:18.289Z,9.43
2023-04-30T05:14:44.792Z,10.02
2023-04-30T05:17:11.248Z,9.70
2023-04-30T05:19:37.820Z,9.00
2023-04-30T05:22:04.517Z,9.00
2023-04-30T05:24:30.879Z,9.82
2023-04-30T05:26:57.707Z,9.23
2023-04-30T05:29:24.119Z,10.50
2023-04-30T05:31:51.012Z,9.27
2023-04-30T05:34:17.440Z,9.80
2023-04-30T05:36:44.439Z,8.57
2023-04-30T05:39:11.347Z,9.05
2023-04-30T05:41:37.886Z,9.07
2023-04-30T05:44:04.991Z,9.27
2023-04-30T05:46:31.753Z,9.70
2023-04-30T05:48:58.301Z,7.93
2023-04-30T05:51:24.675Z,8.25
2023-04-30T05:53:51.132Z,8.18
2023-04-30T05:56:17.680Z,8.70
2023-04-30T05:58:44.320Z,8.38
2023-04-30T06:01:10.834Z,8.25
2023-04-30T06:03:37.654Z,6.95
2023-04-30T06:06:04.959Z,7.63
2023-04-30T06:08:31.725Z,8.93
2023-04-30T06:10:58.876Z,8.18
2023-04-30T06:13:25.367Z,8.13
2023-04-30T06:15:51.815Z,8.20
2023-04-30T06:18:18.315Z,8.35
2023-04-30T06:20:44.814Z,8.50
2023-04-30T06:23:11.271Z,7.13
2023-04-30T06:25:37.743Z,7.55
2023-04-30T06:28:04.508Z,7.40
2023-04-30T06:30:32.200Z,7.07
2023-04-30T06:32:58.840Z,7.28
2023-04-30T06:35:25.350Z,7.03
2023-04-30T06:37:51.809Z,8.05
2023-04-30T06:40:18.282Z,6.78
2023-04-30T06:42:46.959Z,6.50
2023-04-30T06:45:14.166Z,7.22
2023-04-30T06:47:45.339Z,8.10
2023-04-30T06:50:11.771Z,7.47
2023-04-30T06:52:38.637Z,7.40
2023-04-30T06:55:05.348Z,8.68
2023-04-30T06:57:32.000Z,8.40
2023-04-30T06:59:58.486Z,7.68
2023-04-30T07:02:25.056Z,7.25
2023-04-30T07:04:51.541Z,8.07
2023-04-30T07:07:18.104Z,8.80
2023-04-30T07:09:44.464Z,8.40
2023-04-30T07:12:11.676Z,9.63
2023-04-30T07:14:38.528Z,7.90
2023-04-30T07:17:05.163Z,7.68
2023-04-30T07:19:31.869Z,8.07
2023-04-30T07:21:58.654Z,6.93
2023-04-30T07:24:27.273Z,8.05
2023-04-30T07:26:54.044Z,8.35
2023-04-30T07:29:20.581Z,6.88
2023-04-30T07:31:47.270Z,7.80
2023-04-30T07:34:14.019Z,7.40
2023-04-30T07:36:40.509Z,6.88
2023-04-30T07:39:06.946Z,7.28
2023-04-30T07:41:33.445Z,7.50
2023-04-30T07:43:59.948Z,7.65
2023-04-30T07:46:26.695Z,6.95
2023-04-30T07:48:53.043Z,7.60
2023-04-30T07:51:21.260Z,6.45
2023-04-30T07:53:47.801Z,6.85
2023-04-30T07:56:14.378Z,6.88
2023-04-30T07:58:41.083Z,6.30
2023-04-30T08:01:07.642Z,7.38
2023-04-30T08:03:34.238Z,6.30
2023-04-30T08:06:00.888Z,6.20
2023-04-30T08:08:27.320Z,5.95
2023-04-30T08:10:53.990Z,5.55
2023-04-30T08:13:20.436Z,5.45
2023-04-30T08:15:46.896Z,4.88
2023-04-30T08:18:14.403Z,5.60
2023-04-30T08:20:41.215Z,6.38
2023-04-30T08:23:07.705Z,6.20
2023-04-30T08:25:34.161Z,5.38
2023-04-30T08:28:00.600Z,6.22
2023-04-30T08:30:27.122Z,5.57
2023-04-30T08:32:57.563Z,5.82
2023-04-30T08:35:24.383Z,5.57
2023-04-30T08:37:53.894Z,5.43
2023-04-30T08:40:21.044Z,5.95
2023-04-30T08:43:06.322Z,5.68
2023-04-30T08:45:35.186Z,4.60
2023-04-30T08:48:02.573Z,4.45
2023-04-30T08:50:30.213Z,4.53
2023-04-30T08:53:04.538Z,5.07
2023-04-30T08:55:34.209Z,5.88
2023-04-30T08:58:00.865Z,4.18
2023-04-30T09:00:28.957Z,4.70
2023-04-30T09:02:55.754Z,4.05
2023-04-30T09:05:22.122Z,4.65
2023-04-30T09:08:01.543Z,4.93
2023-04-30T09:10:32.989Z,4.80
2023-04-30T09:13:05.089Z,4.68
2023-04-30T09:15:32.442Z,4.63
2023-04-30T09:18:16.543Z,4.15
2023-04-30T09:20:57.734Z,3.78
2023-04-30T09:23:24.684Z,4.15
2023-04-30T09:25:51.171Z,3.90
2023-04-30T09:28:19.142Z,3.75
2023-04-30T09:30:45.651Z,3.55
2023-04-30T09:33:12.605Z,3.67
2023-04-30T09:35:40.360Z,3.30
2023-04-30T09:38:08.890Z,4.00
2023-04-30T09:40:41.646Z,3.97
2023-04-30T09:43:10.293Z,3.58
2023-04-30T09:45:44.327Z,3.33
2023-04-30T09:48:17.225Z,3.53
2023-04-30T09:50:45.256Z,3.08
2023-04-30T09:53:13.701Z,3.90
2023-04-30T09:55:46.637Z,3.58
2023-04-30T09:58:14.121Z,3.45
2023-04-30T10:00:42.707Z,3.50
2023-04-30T10:03:11.196Z,3.40
2023-04-30T10:05:42.209Z,3.22
2023-04-30T10:08:21.628Z,3.15
2023-04-30T10:10:54.417Z,2.88
2023-04-30T10:13:21.822Z,3.13
2023-04-30T10:15:51.638Z,2.97
2023-04-30T10:18:21.857Z,3.15
2023-04-30T10:20:53.562Z,3.60
2023-04-30T10:23:27.857Z,2.92
2023-04-30T10:25:57.925Z,2.97
2023-04-30T10:28:26.472Z,2.60
2023-04-30T10:30:53.967Z,3.33
2023-04-30T10:33:32.243Z,3.00
2023-04-30T10:36:21.099Z,2.78
2023-04-30T10:38:48.583Z,2.88
2023-04-30T10:41:15.079Z,3.90
2023-04-30T10:43:41.941Z,2.78
2023-04-30T10:46:08.846Z,3.45
2023-04-30T10:48:35.561Z,3.15
2023-04-30T10:51:02.361Z,3.10
2023-04-30T10:53:33.602Z,3.03
2023-04-30T10:56:04.860Z,3.10
2023-04-30T10:58:32.934Z,2.97
2023-04-30T11:01:13.820Z,3.78
2023-04-30T11:03:43.119Z,3.35
2023-04-30T11:06:14.054Z,2.92
2023-04-30T11:08:44.584Z,3.30
2023-04-30T11:11:11.800Z,3.20
2023-04-30T11:14:00.628Z,3.28
2023-04-30T11:16:30.559Z,3.20
2023-04-30T11:19:05.989Z,3.60
2023-04-30T11:21:37.537Z,3.00
2023-04-30T11:24:05.311Z,3.53
2023-04-30T11:27:04.104Z,3.00
2023-04-30T11:29:31.716Z,3.35
2023-04-30T11:32:01.410Z,2.90
2023-04-30T11:34:31.012Z,2.63
2023-04-30T11:36:59.552Z,4.33
2023-04-30T11:39:28.274Z,2.78
2023-04-30T11:41:55.109Z,3.30
2023-04-30T11:44:29.201Z,3.38
2023-04-30T11:46:56.136Z,2.97
2023-04-30T11:49:23.659Z,3.08
2023-04-30T11:51:51.373Z,2.67
2023-04-30T11:54:17.782Z,3.15
2023-04-30T11:56:48.126Z,3.90
2023-04-30T11:59:15.656Z,3.00
2023-04-30T12:01:43.158Z,3.40
2023-04-30T12:04:09.866Z,3.08
2023-04-30T12:06:36.908Z,3.25
2023-04-30T12:09:10.194Z,3.08
2023-04-30T12:11:36.659Z,2.75
2023-04-30T12:14:05.549Z,4.07
2023-04-30T12:16:50.523Z,3.35
2023-04-30T12:19:22.354Z,3.70
2023-04-30T12:21:49.546Z,3.53
2023-04-30T12:24:18.688Z,4.07
2023-04-30T12:26:46.146Z,3.42
2023-04-30T12:29:17.698Z,3.17
2023-04-30T12:31:45.328Z,3.20
2023-04-30T12:34:14.148Z,3.38
2023-04-30T12:36:42.579Z,3.65
2023-04-30T12:39:11.250Z,3.38
2023-04-30T12:41:40.961Z,3.47
2023-04-30T12:44:27.051Z,3.77
2023-04-30T12:46:58.201Z,3.40
2023-04-30T12:49:33.601Z,3.22
2023-04-30T12:52:02.825Z,3.80
2023-04-30T12:54:30.924Z,3.00
2023-04-30T12:57:04.347Z,3.20
2023-04-30T12:59:39.349Z,3.40
2023-04-30T13:02:11.081Z,3.50
2023-04-30T13:04:38.074Z,3.10
2023-04-30T13:07:04.882Z,3.00
2023-04-30T13:09:36.658Z,2.88
2023-04-30T13:12:04.417Z,3.10
2023-04-30T13:14:31.805Z,3.00
2023-04-30T13:16:58.771Z,3.33
2023-04-30T13:19:25.637Z,2.75
2023-04-30T13:21:53.077Z,2.70
2023-04-30T13:24:19.527Z,2.72
2023-04-30T13:26:45.920Z,2.50
2023-04-30T13:29:12.592Z,3.03
2023-04-30T13:31:39.396Z,2.65
2023-04-30T13:34:05.893Z,2.80
2023-04-30T13:36:32.380Z,2.90
2023-04-30T13:38:59.739Z,2.70
2023-04-30T13:41:26.461Z,2.88
2023-04-30T13:43:52.970Z,3.40
2023-04-30T13:46:19.671Z,2.65
2023-04-30T13:48:46.444Z,2.90
2023-04-30T13:51:12.862Z,2.83
2023-04-30T13:53:40.319Z,2.95
2023-04-30T13:56:07.086Z,3.00
2023-04-30T13:58:33.508Z,2.80
2023-04-30T14:01:00.037Z,2.90
2023-04-30T14:03:26.712Z,2.50
2023-04-30T14:05:54.773Z,2.85
2023-04-30T14:08:23.318Z,2.97
2023-04-30T14:10:50.447Z,2.40
2023-04-30T14:13:16.892Z,2.70
2023-04-30T14:15:43.384Z,2.63
2023-04-30T14:18:09.906Z,2.85
2023-04-30T14:20:36.307Z,2.90
2023-04-30T14:23:03.073Z,2.60
2023-04-30T14:25:29.754Z,2.78
2023-04-30T14:27:56.126Z,2.97
2023-04-30T14:30:22.694Z,3.10
2023-04-30T14:32:49.092Z,2.80
2023-04-30T14:35:15.494Z,2.72
2023-04-30T14:37:41.823Z,3.20
2023-04-30T14:40:08.751Z,3.53
2023-04-30T14:42:35.317Z,3.22
2023-04-30T14:45:01.841Z,2.80
2023-04-30T14:47:28.601Z,2.80
2023-04-30T14:49:55.296Z,2.80
2023-04-30T14:52:22.002Z,2.83
2023-04-30T14:54:48.293Z,2.58
2023-04-30T14:57:14.752Z,2.30
2023-04-30T14:59:41.061Z,2.83
2023-04-30T15:02:08.671Z,2.65
2023-04-30T15:04:35.464Z,2.83
2023-04-30T15:07:02.042Z,2.78
2023-04-30T15:09:28.432Z,2.58
2023-04-30T15:11:54.806Z,2.60
2023-04-30T15:14:21.280Z,2.80
2023-04-30T15:16:47.743Z,2.85
2023-04-30T15:19:14.160Z,2.60
2023-04-30T15:21:40.689Z,2.60
2023-04-30T15:24:07.120Z,3.30
2023-04-30T15:26:33.827Z,2.53
2023-04-30T15:29:00.814Z,2.75
2023-04-30T15:31:27.294Z,2.58
2023-04-30T15:33:54.361Z,2.83
2023-04-30T15:36:21.468Z,2.45
2023-04-30T15:38:47.943Z,2.70
2023-04-30T15:41:14.342Z,2.70
2023-04-30T15:43:40.685Z,2.92
2023-04-30T15:46:07.792Z,3.13
2023-04-30T15:48:34.540Z,2.90
2023-04-30T15:51:00.968Z,3.03
2023-04-30T15:53:27.534Z,2.63
2023-04-30T15:55:54.099Z,2.78
2023-04-30T15:58:20.613Z,3.03
2023-04-30T16:00:47.076Z,2.92
2023-04-30T16:03:14.477Z,2.95
2023-04-30T16:05:41.239Z,3.20
2023-04-30T16:08:09.562Z,3.00
2023-04-30T16:10:36.896Z,3.25
2023-04-30T16:13:03.576Z,2.78
2023-04-30T16:15:30.495Z,2.85
2023-04-30T16:17:57.405Z,2.92
2023-04-30T16:20:24.663Z,2.83
2023-04-30T16:22:51.496Z,3.38
2023-04-30T16:25:18.102Z,2.45
2023-04-30T16:27:44.594Z,2.67
2023-04-30T16:30:11.317Z,2.50
2023-04-30T16:32:37.975Z,2.65
2023-04-30T16:35:04.553Z,3.03
2023-04-30T16:37:31.066Z,2.60
2023-04-30T16:39:58.104Z,2.40
2023-04-30T16:42:24.714Z,2.58
2023-04-30T16:44:51.167Z,2.10
2023-04-30T16:47:19.702Z,3.05
2023-04-30T16:49:46.275Z,3.25
2023-04-30T16:52:12.987Z,2.92
2023-04-30T16:54:39.319Z,2.78
2023-04-30T16:57:07.221Z,2.42
2023-04-30T16:59:33.719Z,2.70
2023-04-30T17:02:00.278Z,2.67
2023-04-30T17:04:27.012Z,3.03
2023-04-30T17:06:53.847Z,2.47
2023-04-30T17:09:20.359Z,2.70
2023-04-30T17:11:46.771Z,3.13
2023-04-30T17:14:13.459Z,3.10
2023-04-30T17:16:39.903Z,3.00
2023-04-30T17:19:06.579Z,2.80
2023-04-30T17:21:32.922Z,2.90
2023-04-30T17:23:59.300Z,3.17
2023-04-30T17:26:25.627Z,2.95
2023-04-30T17:28:52.377Z,3.65
2023-04-30T17:31:19.488Z,3.92
2023-04-30T17:33:46.280Z,3.58
2023-04-30T17:36:13.302Z,3.35
2023-04-30T17:38:42.693Z,3.72
2023-04-30T17:41:09.120Z,3.90
2023-04-30T17:43:35.629Z,3.25
2023-04-30T17:46:05.039Z,2.75
2023-04-30T17:48:31.680Z,2.97
2023-04-30T17:50:58.168Z,2.78
2023-04-30T17:53:24.624Z,2.55
2023-04-30T17:55:51.370Z,2.40
2023-04-30T17:58:17.752Z,2.40
2023-04-30T18:00:44.252Z,2.80
2023-04-30T18:03:10.982Z,2.50
2023-04-30T18:05:38.253Z,3.05
2023-04-30T18:08:05.178Z,2.70
2023-04-30T18:10:31.612Z,2.90
2023-04-30T18:12:58.833Z,3.17
2023-04-30T18:15:26.465Z,3.20
2023-04-30T18:17:52.918Z,2.95
2023-04-30T18:20:19.435Z,3.63
2023-04-30T18:22:46.921Z,3.85
2023-04-30T18:25:14.003Z,3.47
2023-04-30T18:27:41.172Z,3.17
2023-04-30T18:30:08.929Z,3.83
2023-04-30T18:32:36.946Z,4.40
2023-04-30T18:35:03.481Z,3.50
2023-04-30T18:37:31.031Z,3.80
2023-04-30T18:39:57.730Z,4.22
2023-04-30T18:42:25.488Z,3.72
2023-04-30T18:44:52.080Z,5.05
2023-04-30T18:47:18.434Z,3.92
2023-04-30T18:49:45.189Z,3.53
2023-04-30T18:52:11.669Z,3.67
2023-04-30T18:54:38.040Z,3.15
2023-04-30T18:57:04.956Z,3.45
2023-04-30T18:59:31.347Z,3.78
2023-04-30T19:01:57.886Z,3.60
2023-04-30T19:04:24.428Z,3.05
2023-04-30T19:06:50.790Z,3.28
2023-04-30T19:09:17.319Z,3.58
2023-04-30T19:11:43.775Z,3.70
2023-04-30T19:14:11.252Z,3.75
2023-04-30T19:16:38.135Z,4.07
2023-04-30T19:19:06.028Z,3.20
2023-04-30T19:21:32.552Z,4.10
2023-04-30T19:23:59.249Z,4.90
2023-04-30T19:26:25.742Z,3.17
2023-04-30T19:28:52.470Z,3.78
2023-04-30T19:31:19.000Z,3.53
2023-04-30T19:33:45.698Z,3.85
2023-04-30T19:36:12.070Z,3.30
2023-04-30T19:38:38.585Z,3.75
2023-04-30T19:41:05.104Z,3.38
2023-04-30T19:43:31.601Z,3.55
2023-04-30T19:45:58.942Z,4.40
2023-04-30T19:48:25.934Z,4.63
2023-04-30T19:50:54.433Z,4.60
2023-04-30T19:53:22.128Z,5.55
2023-04-30T19:55:50.950Z,5.68
2023-04-30T19:58:17.457Z,5.15
2023-04-30T20:00:45.452Z,4.82
2023-04-30T20:03:13.407Z,5.13
2023-04-30T20:05:39.971Z,4.53
2023-04-30T20:08:07.950Z,4.80
2023-04-30T20:10:36.420Z,4.32
2023-04-30T20:13:03.935Z,3.78
2023-04-30T20:15:30.503Z,4.50
2023-04-30T20:17:57.513Z,4.55
2023-04-30T20:20:24.071Z,5.38
2023-04-30T20:22:52.478Z,7.13
2023-04-30T20:25:19.564Z,7.90
2023-04-30T20:27:46.033Z,7.43
2023-04-30T20:30:12.883Z,6.78
2023-04-30T20:32:40.702Z,6.80
2023-04-30T20:35:07.899Z,6.55
2023-04-30T20:37:35.647Z,6.25
2023-04-30T20:40:02.159Z,5.68
2023-04-30T20:42:28.620Z,6.43
2023-04-30T20:44:55.513Z,6.32
2023-04-30T20:47:24.409Z,7.15
2023-04-30T20:49:51.017Z,7.00
2023-04-30T20:52:17.569Z,6.65
2023-04-30T20:54:48.548Z,6.50
2023-04-30T20:57:16.474Z,6.75
2023-04-30T20:59:44.492Z,7.10
2023-04-30T21:02:11.249Z,7.20
2023-04-30T21:04:39.015Z,6.75
2023-04-30T21:07:13.707Z,7.18
2023-04-30T21:09:40.630Z,6.82
2023-04-30T21:12:07.636Z,7.47
2023-04-30T21:14:34.573Z,7.20
2023-04-30T21:17:01.184Z,6.40
2023-04-30T21:19:29.285Z,6.22
2023-04-30T21:21:55.661Z,6.35
2023-04-30T21:24:22.451Z,5.80
2023-04-30T21:26:49.290Z,6.30
2023-04-30T21:29:15.743Z,5.50
2023-04-30T21:31:42.214Z,7.00
2023-04-30T21:34:08.595Z,6.25
2023-04-30T21:36:35.042Z,6.60
2023-04-30T21:39:01.474Z,7.45
2023-04-30T21:41:28.300Z,7.22
2023-04-30T21:43:55.093Z,7.38
2023-04-30T21:46:21.582Z,6.90
2023-04-30T21:48:47.954Z,7.85
2023-04-30T21:51:17.753Z,7.18
2023-04-30T21:53:44.972Z,7.22
2023-04-30T21:56:19.182Z,7.47
2023-04-30T21:58:47.793Z,7.72
2023-04-30T22:01:15.421Z,7.57
2023-04-30T22:03:42.429Z,8.10
2023-04-30T22:06:08.901Z,7.35
2023-04-30T22:08:35.314Z,7.13
2023-04-30T22:11:01.671Z,7.65
2023-04-30T22:13:28.720Z,7.43
2023-04-30T22:15:55.976Z,7.60
2023-04-30T22:18:23.585Z,8.02
2023-04-30T22:20:50.886Z,7.97
2023-04-30T22:23:18.261Z,7.10
2023-04-30T22:25:44.791Z,6.78
2023-04-30T22:28:11.345Z,7.40
2023-04-30T22:30:37.756Z,7.70
2023-04-30T22:33:04.460Z,6.85
2023-04-30T22:35:31.175Z,7.22
2023-04-30T22:37:57.820Z,7.57
2023-04-30T22:40:24.788Z,8.60
2023-04-30T22:42:52.008Z,9.20
2023-04-30T22:45:18.400Z,8.05
2023-04-30T22:47:44.991Z,7.90
2023-04-30T22:50:11.549Z,7.38
2023-04-30T22:52:38.042Z,7.05
2023-04-30T22:55:05.162Z,7.38
2023-04-30T22:57:31.889Z,7.45
2023-04-30T22:59:58.509Z,7.25
2023-04-30T23:02:25.215Z,7.32
2023-04-30T23:04:51.638Z,7.18
2023-04-30T23:07:18.124Z,8.00
2023-04-30T23:09:44.603Z,7.10
2023-04-30T23:12:11.039Z,7.25
2023-04-30T23:14:37.812Z,7.68
2023-04-30T23:17:04.611Z,7.68
2023-04-30T23:19:31.029Z,8.00
2023-04-30T23:21:57.383Z,8.27
2023-04-30T23:24:23.810Z,7.10
2023-04-30T23:26:50.267Z,7.93
2023-04-30T23:29:16.711Z,7.57
2023-04-30T23:31:43.146Z,7.03
2023-04-30T23:34:09.659Z,7.47
2023-04-30T23:36:36.044Z,7.55
2023-04-30T23:39:02.479Z,8.02
2023-04-30T23:41:28.945Z,7.95
2023-04-30T23:43:55.304Z,7.50
2023-04-30T23:46:21.728Z,8.52
2023-04-30T23:48:48.165Z,7.20
2023-04-30T23:51:14.635Z,7.75
2023-04-30T23:53:41.247Z,7.57
2023-04-30T23:56:08.106Z,7.55
2023-04-30T23:58:34.908Z,8.48
